< < Back
Terminal Aerodrome Forecast


Current Version              Previous Versions:   1  2  3  4  5  6  7  8  9  

Terminal Aerodrome Forecast

581
FTUS42 KCAE 301400 AAA
TAFAGS
TAF AMD
KAGS 301424Z 3014/3112 13006KT P6SM SCT050=

Latest METAR

112
SAUS70 KWBC 301400 RRA
MTRAGS
METAR KAGS 301353Z 13006KT 10SM CLR 28/23 A3017 RMK AO2 SLP215
T02780233


USA.gov is the U.S. government's official web portal to all federal, state and local government web resources and services.